sensor_id;sensor_type;location;lat;lon;timestamp;P1;durP1;ratioP1;P2;durP2;ratioP2
18376;SDS011;9315;52.624;13.544;2023-07-31T00:00:23;6.07;;;1.53;;
18376;SDS011;9315;52.624;13.544;2023-07-31T00:02:51;5.60;;;1.63;;
18376;SDS011;9315;52.624;13.544;2023-07-31T00:05:20;7.30;;;1.40;;
18376;SDS011;9315;52.624;13.544;2023-07-31T00:07:48;4.00;;;1.87;;
18376;SDS011;9315;52.624;13.544;2023-07-31T00:10:15;8.30;;;1.73;;
18376;SDS011;9315;52.624;13.544;2023-07-31T00:12:42;7.07;;;1.73;;
18376;SDS011;9315;52.624;13.544;2023-07-31T00:15:11;6.20;;;1.23;;
18376;SDS011;9315;52.624;13.544;2023-07-31T00:17:40;5.13;;;1.63;;
18376;SDS011;9315;52.624;13.544;2023-07-31T00:20:08;5.57;;;1.63;;
18376;SDS011;9315;52.624;13.544;2023-07-31T00:22:36;3.73;;;1.57;;
18376;SDS011;9315;52.624;13.544;2023-07-31T00:25:03;9.57;;;2.00;;
18376;SDS011;9315;52.624;13.544;2023-07-31T00:27:32;5.13;;;1.87;;
18376;SDS011;9315;52.624;13.544;2023-07-31T00:29:59;6.53;;;2.20;;
18376;SDS011;9315;52.624;13.544;2023-07-31T00:32:26;3.27;;;1.57;;
18376;SDS011;9315;52.624;13.544;2023-07-31T00:34:54;7.20;;;1.53;;
18376;SDS011;9315;52.624;13.544;2023-07-31T00:37:23;6.27;;;1.47;;
18376;SDS011;9315;52.624;13.544;2023-07-31T00:39:50;3.43;;;1.33;;
18376;SDS011;9315;52.624;13.544;2023-07-31T00:42:17;7.03;;;1.40;;
18376;SDS011;9315;52.624;13.544;2023-07-31T00:44:44;5.40;;;1.40;;
18376;SDS011;9315;52.624;13.544;2023-07-31T00:47:12;4.07;;;1.40;;
18376;SDS011;9315;52.624;13.544;2023-07-31T00:49:39;5.80;;;1.40;;
18376;SDS011;9315;52.624;13.544;2023-07-31T00:52:07;7.03;;;1.47;;
18376;SDS011;9315;52.624;13.544;2023-07-31T00:54:36;6.00;;;1.43;;
18376;SDS011;9315;52.624;13.544;2023-07-31T00:57:03;4.83;;;1.37;;
18376;SDS011;9315;52.624;13.544;2023-07-31T00:59:34;4.43;;;1.40;;
18376;SDS011;9315;52.624;13.544;2023-07-31T01:02:02;6.07;;;1.50;;
18376;SDS011;9315;52.624;13.544;2023-07-31T01:04:30;5.70;;;1.60;;
18376;SDS011;9315;52.624;13.544;2023-07-31T01:12:33;5.87;;;1.40;;
18376;SDS011;9315;52.624;13.544;2023-07-31T01:15:04;8.30;;;1.30;;
18376;SDS011;9315;52.624;13.544;2023-07-31T01:17:37;4.33;;;1.13;;
18376;SDS011;9315;52.624;13.544;2023-07-31T01:20:05;4.93;;;1.20;;
18376;SDS011;9315;52.624;13.544;2023-07-31T01:26:19;6.30;;;1.40;;
18376;SDS011;9315;52.624;13.544;2023-07-31T01:28:56;3.43;;;0.90;;
18376;SDS011;9315;52.624;13.544;2023-07-31T01:31:42;4.30;;;1.00;;
18376;SDS011;9315;52.624;13.544;2023-07-31T01:34:16;6.67;;;1.10;;
18376;SDS011;9315;52.624;13.544;2023-07-31T01:36:45;6.73;;;1.10;;
18376;SDS011;9315;52.624;13.544;2023-07-31T01:39:12;2.23;;;1.03;;
18376;SDS011;9315;52.624;13.544;2023-07-31T01:41:39;5.50;;;1.40;;
18376;SDS011;9315;52.624;13.544;2023-07-31T01:44:07;2.77;;;1.00;;
18376;SDS011;9315;52.624;13.544;2023-07-31T01:46:34;2.27;;;1.13;;
18376;SDS011;9315;52.624;13.544;2023-07-31T01:49:01;6.30;;;1.93;;
18376;SDS011;9315;52.624;13.544;2023-07-31T01:51:28;7.17;;;1.77;;
18376;SDS011;9315;52.624;13.544;2023-07-31T01:53:55;3.73;;;1.60;;
18376;SDS011;9315;52.624;13.544;2023-07-31T01:56:26;4.53;;;1.37;;
18376;SDS011;9315;52.624;13.544;2023-07-31T01:58:53;4.03;;;1.70;;
18376;SDS011;9315;52.624;13.544;2023-07-31T02:01:20;7.37;;;1.70;;
18376;SDS011;9315;52.624;13.544;2023-07-31T02:03:48;4.20;;;1.73;;
18376;SDS011;9315;52.624;13.544;2023-07-31T02:06:15;6.07;;;1.63;;
18376;SDS011;9315;52.624;13.544;2023-07-31T02:08:42;8.20;;;1.97;;
18376;SDS011;9315;52.624;13.544;2023-07-31T02:11:09;6.57;;;1.87;;
18376;SDS011;9315;52.624;13.544;2023-07-31T02:13:36;4.33;;;1.60;;
18376;SDS011;9315;52.624;13.544;2023-07-31T02:16:05;4.50;;;1.80;;
18376;SDS011;9315;52.624;13.544;2023-07-31T02:18:33;6.87;;;1.57;;
18376;SDS011;9315;52.624;13.544;2023-07-31T02:21:00;6.57;;;1.60;;
18376;SDS011;9315;52.624;13.544;2023-07-31T02:23:28;6.27;;;1.60;;
18376;SDS011;9315;52.624;13.544;2023-07-31T02:25:55;5.20;;;1.63;;
18376;SDS011;9315;52.624;13.544;2023-07-31T02:28:23;6.03;;;1.43;;
18376;SDS011;9315;52.624;13.544;2023-07-31T02:30:50;3.50;;;1.57;;
18376;SDS011;9315;52.624;13.544;2023-07-31T02:33:18;6.40;;;1.93;;
18376;SDS011;9315;52.624;13.544;2023-07-31T02:35:45;3.23;;;1.53;;
18376;SDS011;9315;52.624;13.544;2023-07-31T02:38:13;4.20;;;1.50;;
18376;SDS011;9315;52.624;13.544;2023-07-31T02:40:40;3.33;;;1.63;;
18376;SDS011;9315;52.624;13.544;2023-07-31T02:43:07;5.37;;;1.80;;
18376;SDS011;9315;52.624;13.544;2023-07-31T02:45:35;5.53;;;1.70;;
18376;SDS011;9315;52.624;13.544;2023-07-31T02:48:03;5.00;;;1.60;;
18376;SDS011;9315;52.624;13.544;2023-07-31T02:50:31;3.83;;;1.70;;
18376;SDS011;9315;52.624;13.544;2023-07-31T02:52:59;3.80;;;1.70;;
18376;SDS011;9315;52.624;13.544;2023-07-31T02:55:26;3.10;;;1.70;;
18376;SDS011;9315;52.624;13.544;2023-07-31T02:57:53;7.20;;;2.00;;
18376;SDS011;9315;52.624;13.544;2023-07-31T03:00:20;5.03;;;1.90;;
18376;SDS011;9315;52.624;13.544;2023-07-31T03:02:48;5.80;;;1.60;;
18376;SDS011;9315;52.624;13.544;2023-07-31T03:05:15;4.73;;;1.90;;
18376;SDS011;9315;52.624;13.544;2023-07-31T03:07:44;6.80;;;2.30;;
18376;SDS011;9315;52.624;13.544;2023-07-31T03:10:12;5.20;;;2.03;;
18376;SDS011;9315;52.624;13.544;2023-07-31T03:12:40;2.97;;;1.47;;
18376;SDS011;9315;52.624;13.544;2023-07-31T03:15:07;4.50;;;1.70;;
18376;SDS011;9315;52.624;13.544;2023-07-31T03:17:35;5.93;;;1.97;;
18376;SDS011;9315;52.624;13.544;2023-07-31T03:20:03;4.17;;;2.10;;
18376;SDS011;9315;52.624;13.544;2023-07-31T03:22:31;3.60;;;1.90;;
18376;SDS011;9315;52.624;13.544;2023-07-31T03:24:58;4.30;;;2.07;;
18376;SDS011;9315;52.624;13.544;2023-07-31T03:27:25;4.70;;;2.33;;
18376;SDS011;9315;52.624;13.544;2023-07-31T03:29:52;3.00;;;2.20;;
18376;SDS011;9315;52.624;13.544;2023-07-31T03:32:20;4.53;;;2.20;;
18376;SDS011;9315;52.624;13.544;2023-07-31T03:34:47;5.67;;;2.17;;
18376;SDS011;9315;52.624;13.544;2023-07-31T03:37:15;4.00;;;1.90;;
18376;SDS011;9315;52.624;13.544;2023-07-31T03:39:42;7.93;;;3.10;;
18376;SDS011;9315;52.624;13.544;2023-07-31T03:42:09;5.53;;;3.30;;
18376;SDS011;9315;52.624;13.544;2023-07-31T03:44:37;11.03;;;3.60;;
18376;SDS011;9315;52.624;13.544;2023-07-31T03:47:04;9.33;;;2.67;;
18376;SDS011;9315;52.624;13.544;2023-07-31T03:49:32;7.73;;;2.50;;
18376;SDS011;9315;52.624;13.544;2023-07-31T03:51:59;8.10;;;2.50;;
18376;SDS011;9315;52.624;13.544;2023-07-31T03:54:26;3.97;;;2.30;;
18376;SDS011;9315;52.624;13.544;2023-07-31T03:56:53;6.17;;;3.10;;
18376;SDS011;9315;52.624;13.544;2023-07-31T03:59:20;9.33;;;3.40;;
18376;SDS011;9315;52.624;13.544;2023-07-31T04:01:48;5.93;;;2.47;;
18376;SDS011;9315;52.624;13.544;2023-07-31T04:04:17;6.77;;;3.13;;
18376;SDS011;9315;52.624;13.544;2023-07-31T04:06:44;7.97;;;3.30;;
18376;SDS011;9315;52.624;13.544;2023-07-31T04:09:11;8.07;;;3.40;;
18376;SDS011;9315;52.624;13.544;2023-07-31T04:11:38;9.93;;;3.60;;
18376;SDS011;9315;52.624;13.544;2023-07-31T04:14:06;6.40;;;3.57;;
18376;SDS011;9315;52.624;13.544;2023-07-31T04:16:33;7.43;;;3.50;;
18376;SDS011;9315;52.624;13.544;2023-07-31T04:19:00;13.97;;;3.97;;
18376;SDS011;9315;52.624;13.544;2023-07-31T04:21:29;8.87;;;3.70;;
18376;SDS011;9315;52.624;13.544;2023-07-31T04:23:56;9.20;;;3.80;;
18376;SDS011;9315;52.624;13.544;2023-07-31T04:26:24;12.30;;;4.33;;
18376;SDS011;9315;52.624;13.544;2023-07-31T04:28:52;9.13;;;3.63;;
18376;SDS011;9315;52.624;13.544;2023-07-31T04:31:19;13.83;;;4.43;;
18376;SDS011;9315;52.624;13.544;2023-07-31T04:33:47;6.10;;;3.40;;
18376;SDS011;9315;52.624;13.544;2023-07-31T04:36:14;7.23;;;3.60;;
18376;SDS011;9315;52.624;13.544;2023-07-31T04:38:41;6.60;;;3.23;;
18376;SDS011;9315;52.624;13.544;2023-07-31T04:41:08;8.10;;;3.70;;
18376;SDS011;9315;52.624;13.544;2023-07-31T04:43:35;9.40;;;3.70;;
18376;SDS011;9315;52.624;13.544;2023-07-31T04:46:05;7.27;;;3.30;;
18376;SDS011;9315;52.624;13.544;2023-07-31T04:48:32;7.80;;;3.73;;
18376;SDS011;9315;52.624;13.544;2023-07-31T04:50:59;6.77;;;3.73;;
18376;SDS011;9315;52.624;13.544;2023-07-31T04:53:26;8.07;;;3.70;;
18376;SDS011;9315;52.624;13.544;2023-07-31T04:55:54;9.57;;;3.53;;
18376;SDS011;9315;52.624;13.544;2023-07-31T04:58:21;7.73;;;3.87;;
18376;SDS011;9315;52.624;13.544;2023-07-31T05:00:48;9.37;;;3.70;;
18376;SDS011;9315;52.624;13.544;2023-07-31T05:03:15;6.77;;;3.53;;
18376;SDS011;9315;52.624;13.544;2023-07-31T05:05:43;14.80;;;3.67;;
18376;SDS011;9315;52.624;13.544;2023-07-31T05:08:10;9.23;;;4.00;;
18376;SDS011;9315;52.624;13.544;2023-07-31T05:10:38;8.67;;;2.87;;
18376;SDS011;9315;52.624;13.544;2023-07-31T05:13:05;9.87;;;3.67;;
18376;SDS011;9315;52.624;13.544;2023-07-31T05:15:32;11.53;;;3.60;;
18376;SDS011;9315;52.624;13.544;2023-07-31T05:17:59;11.73;;;3.83;;
18376;SDS011;9315;52.624;13.544;2023-07-31T05:20:27;13.97;;;4.33;;
18376;SDS011;9315;52.624;13.544;2023-07-31T05:22:54;6.57;;;3.23;;
18376;SDS011;9315;52.624;13.544;2023-07-31T05:25:21;8.63;;;3.30;;
18376;SDS011;9315;52.624;13.544;2023-07-31T05:27:49;8.73;;;3.60;;
18376;SDS011;9315;52.624;13.544;2023-07-31T05:30:16;5.77;;;3.20;;
18376;SDS011;9315;52.624;13.544;2023-07-31T05:32:43;7.13;;;3.40;;
18376;SDS011;9315;52.624;13.544;2023-07-31T05:35:11;7.00;;;3.20;;
18376;SDS011;9315;52.624;13.544;2023-07-31T05:37:38;10.10;;;4.00;;
18376;SDS011;9315;52.624;13.544;2023-07-31T05:40:05;7.83;;;3.97;;
18376;SDS011;9315;52.624;13.544;2023-07-31T05:42:34;9.93;;;3.60;;
18376;SDS011;9315;52.624;13.544;2023-07-31T05:45:03;6.47;;;3.57;;
18376;SDS011;9315;52.624;13.544;2023-07-31T05:47:33;13.20;;;4.07;;
18376;SDS011;9315;52.624;13.544;2023-07-31T05:50:02;7.73;;;3.70;;
18376;SDS011;9315;52.624;13.544;2023-07-31T05:52:30;13.93;;;3.83;;
18376;SDS011;9315;52.624;13.544;2023-07-31T05:54:57;9.80;;;3.80;;
18376;SDS011;9315;52.624;13.544;2023-07-31T05:57:24;10.17;;;3.27;;
18376;SDS011;9315;52.624;13.544;2023-07-31T05:59:52;9.70;;;2.97;;
18376;SDS011;9315;52.624;13.544;2023-07-31T06:02:19;8.43;;;3.53;;
18376;SDS011;9315;52.624;13.544;2023-07-31T06:04:46;14.83;;;3.73;;
18376;SDS011;9315;52.624;13.544;2023-07-31T06:07:14;12.23;;;3.67;;
18376;SDS011;9315;52.624;13.544;2023-07-31T06:09:41;7.47;;;3.10;;
18376;SDS011;9315;52.624;13.544;2023-07-31T06:12:11;6.50;;;3.45;;
18376;SDS011;9315;52.624;13.544;2023-07-31T06:14:42;9.10;;;2.77;;
18376;SDS011;9315;52.624;13.544;2023-07-31T06:17:09;7.73;;;3.30;;
18376;SDS011;9315;52.624;13.544;2023-07-31T06:19:37;8.33;;;3.20;;
18376;SDS011;9315;52.624;13.544;2023-07-31T06:22:05;7.63;;;3.00;;
18376;SDS011;9315;52.624;13.544;2023-07-31T06:24:32;7.50;;;3.00;;
18376;SDS011;9315;52.624;13.544;2023-07-31T06:26:59;8.93;;;3.00;;
18376;SDS011;9315;52.624;13.544;2023-07-31T06:29:29;8.33;;;3.03;;
18376;SDS011;9315;52.624;13.544;2023-07-31T06:31:59;10.43;;;3.33;;
18376;SDS011;9315;52.624;13.544;2023-07-31T06:34:29;7.10;;;2.70;;
18376;SDS011;9315;52.624;13.544;2023-07-31T06:36:58;10.70;;;2.70;;
18376;SDS011;9315;52.624;13.544;2023-07-31T06:39:28;7.80;;;2.95;;
18376;SDS011;9315;52.624;13.544;2023-07-31T06:41:55;10.53;;;3.00;;
18376;SDS011;9315;52.624;13.544;2023-07-31T06:44:22;7.00;;;2.67;;
18376;SDS011;9315;52.624;13.544;2023-07-31T06:46:52;7.67;;;2.97;;
18376;SDS011;9315;52.624;13.544;2023-07-31T06:49:22;6.17;;;2.93;;
18376;SDS011;9315;52.624;13.544;2023-07-31T06:51:50;9.30;;;3.43;;
18376;SDS011;9315;52.624;13.544;2023-07-31T06:54:17;6.53;;;2.80;;
18376;SDS011;9315;52.624;13.544;2023-07-31T06:56:44;8.90;;;3.00;;
18376;SDS011;9315;52.624;13.544;2023-07-31T06:59:11;8.25;;;2.55;;
18376;SDS011;9315;52.624;13.544;2023-07-31T07:01:38;6.50;;;2.80;;
18376;SDS011;9315;52.624;13.544;2023-07-31T07:04:06;5.43;;;2.50;;
18376;SDS011;9315;52.624;13.544;2023-07-31T07:06:33;5.43;;;2.93;;
18376;SDS011;9315;52.624;13.544;2023-07-31T07:09:01;3.28;;;2.10;;
18376;SDS011;9315;52.624;13.544;2023-07-31T07:11:29;6.67;;;2.70;;
18376;SDS011;9315;52.624;13.544;2023-07-31T07:13:56;7.40;;;2.70;;
18376;SDS011;9315;52.624;13.544;2023-07-31T07:16:23;7.20;;;2.10;;
18376;SDS011;9315;52.624;13.544;2023-07-31T07:18:50;5.95;;;2.33;;
18376;SDS011;9315;52.624;13.544;2023-07-31T07:21:30;4.43;;;2.13;;
18376;SDS011;9315;52.624;13.544;2023-07-31T07:23:58;8.20;;;2.80;;
18376;SDS011;9315;52.624;13.544;2023-07-31T07:26:25;6.80;;;2.40;;
18376;SDS011;9315;52.624;13.544;2023-07-31T07:28:53;6.87;;;2.43;;
18376;SDS011;9315;52.624;13.544;2023-07-31T07:31:25;4.53;;;2.17;;
18376;SDS011;9315;52.624;13.544;2023-07-31T07:33:53;5.37;;;2.03;;
18376;SDS011;9315;52.624;13.544;2023-07-31T07:36:20;7.63;;;2.25;;
18376;SDS011;9315;52.624;13.544;2023-07-31T07:38:47;6.35;;;2.30;;
18376;SDS011;9315;52.624;13.544;2023-07-31T07:41:15;4.78;;;2.13;;
18376;SDS011;9315;52.624;13.544;2023-07-31T07:43:42;8.47;;;2.27;;
18376;SDS011;9315;52.624;13.544;2023-07-31T07:46:09;7.55;;;2.38;;
18376;SDS011;9315;52.624;13.544;2023-07-31T07:48:36;4.13;;;1.87;;
18376;SDS011;9315;52.624;13.544;2023-07-31T07:51:03;5.20;;;1.87;;
18376;SDS011;9315;52.624;13.544;2023-07-31T07:53:31;5.27;;;2.23;;
18376;SDS011;9315;52.624;13.544;2023-07-31T07:55:58;6.83;;;2.47;;
18376;SDS011;9315;52.624;13.544;2023-07-31T07:58:25;4.30;;;1.93;;
18376;SDS011;9315;52.624;13.544;2023-07-31T08:00:52;7.77;;;1.93;;
18376;SDS011;9315;52.624;13.544;2023-07-31T08:03:19;7.00;;;2.35;;
18376;SDS011;9315;52.624;13.544;2023-07-31T08:05:47;4.75;;;1.85;;
18376;SDS011;9315;52.624;13.544;2023-07-31T08:08:14;6.25;;;1.88;;
18376;SDS011;9315;52.624;13.544;2023-07-31T08:10:42;4.77;;;1.83;;
18376;SDS011;9315;52.624;13.544;2023-07-31T08:13:11;4.20;;;1.77;;
18376;SDS011;9315;52.624;13.544;2023-07-31T08:15:39;2.63;;;1.60;;
18376;SDS011;9315;52.624;13.544;2023-07-31T08:18:09;4.60;;;2.13;;
18376;SDS011;9315;52.624;13.544;2023-07-31T08:20:38;4.43;;;1.63;;
18376;SDS011;9315;52.624;13.544;2023-07-31T08:23:05;3.28;;;1.55;;
18376;SDS011;9315;52.624;13.544;2023-07-31T08:25:34;5.07;;;2.30;;
18376;SDS011;9315;52.624;13.544;2023-07-31T08:28:03;3.97;;;1.65;;
18376;SDS011;9315;52.624;13.544;2023-07-31T08:30:32;3.92;;;1.55;;
18376;SDS011;9315;52.624;13.544;2023-07-31T08:33:00;3.67;;;1.60;;
18376;SDS011;9315;52.624;13.544;2023-07-31T08:35:29;6.15;;;1.80;;
18376;SDS011;9315;52.624;13.544;2023-07-31T08:37:57;2.08;;;1.30;;
18376;SDS011;9315;52.624;13.544;2023-07-31T08:40:24;3.70;;;1.63;;
18376;SDS011;9315;52.624;13.544;2023-07-31T08:42:52;4.28;;;1.50;;
18376;SDS011;9315;52.624;13.544;2023-07-31T08:45:28;3.35;;;1.70;;
18376;SDS011;9315;52.624;13.544;2023-07-31T08:47:57;3.20;;;1.63;;
18376;SDS011;9315;52.624;13.544;2023-07-31T08:50:25;3.60;;;1.60;;
18376;SDS011;9315;52.624;13.544;2023-07-31T08:52:52;2.58;;;1.40;;
18376;SDS011;9315;52.624;13.544;2023-07-31T08:55:22;2.23;;;1.20;;
18376;SDS011;9315;52.624;13.544;2023-07-31T08:57:57;3.03;;;1.13;;
18376;SDS011;9315;52.624;13.544;2023-07-31T09:00:26;3.17;;;1.20;;
18376;SDS011;9315;52.624;13.544;2023-07-31T09:03:08;2.17;;;0.90;;
18376;SDS011;9315;52.624;13.544;2023-07-31T09:05:43;2.53;;;1.10;;
18376;SDS011;9315;52.624;13.544;2023-07-31T09:08:13;5.77;;;1.10;;
18376;SDS011;9315;52.624;13.544;2023-07-31T09:10:48;1.30;;;0.80;;
18376;SDS011;9315;52.624;13.544;2023-07-31T09:13:16;1.15;;;0.90;;
18376;SDS011;9315;52.624;13.544;2023-07-31T09:15:44;1.55;;;0.80;;
18376;SDS011;9315;52.624;13.544;2023-07-31T09:18:13;2.87;;;1.00;;
18376;SDS011;9315;52.624;13.544;2023-07-31T09:20:44;1.58;;;0.77;;
18376;SDS011;9315;52.624;13.544;2023-07-31T09:23:12;2.27;;;1.10;;
18376;SDS011;9315;52.624;13.544;2023-07-31T09:25:43;3.33;;;1.30;;
18376;SDS011;9315;52.624;13.544;2023-07-31T09:28:12;2.67;;;1.10;;
18376;SDS011;9315;52.624;13.544;2023-07-31T09:30:47;2.83;;;1.00;;
18376;SDS011;9315;52.624;13.544;2023-07-31T09:33:17;1.97;;;1.10;;
18376;SDS011;9315;52.624;13.544;2023-07-31T09:35:49;3.93;;;0.97;;
18376;SDS011;9315;52.624;13.544;2023-07-31T09:38:16;1.73;;;0.97;;
18376;SDS011;9315;52.624;13.544;2023-07-31T09:40:44;2.60;;;1.30;;
18376;SDS011;9315;52.624;13.544;2023-07-31T09:43:23;3.15;;;1.13;;
18376;SDS011;9315;52.624;13.544;2023-07-31T09:45:54;1.77;;;1.40;;
18376;SDS011;9315;52.624;13.544;2023-07-31T09:48:25;3.63;;;1.10;;
18376;SDS011;9315;52.624;13.544;2023-07-31T09:50:53;2.43;;;1.27;;
18376;SDS011;9315;52.624;13.544;2023-07-31T09:53:27;1.97;;;1.27;;
18376;SDS011;9315;52.624;13.544;2023-07-31T09:55:57;4.03;;;1.40;;
18376;SDS011;9315;52.624;13.544;2023-07-31T09:58:26;4.63;;;2.23;;
18376;SDS011;9315;52.624;13.544;2023-07-31T10:00:57;3.43;;;1.20;;
18376;SDS011;9315;52.624;13.544;2023-07-31T10:03:26;4.53;;;1.00;;
18376;SDS011;9315;52.624;13.544;2023-07-31T10:05:56;1.60;;;1.40;;
18376;SDS011;9315;52.624;13.544;2023-07-31T10:08:27;3.10;;;1.30;;
18376;SDS011;9315;52.624;13.544;2023-07-31T10:10:58;4.27;;;1.40;;
18376;SDS011;9315;52.624;13.544;2023-07-31T10:13:27;1.75;;;0.98;;
18376;SDS011;9315;52.624;13.544;2023-07-31T10:15:58;2.57;;;1.13;;
18376;SDS011;9315;52.624;13.544;2023-07-31T10:18:29;1.60;;;0.90;;
18376;SDS011;9315;52.624;13.544;2023-07-31T10:20:57;1.95;;;1.00;;
18376;SDS011;9315;52.624;13.544;2023-07-31T10:23:24;2.60;;;1.10;;
18376;SDS011;9315;52.624;13.544;2023-07-31T10:25:53;2.38;;;1.13;;
18376;SDS011;9315;52.624;13.544;2023-07-31T10:28:21;2.70;;;1.45;;
18376;SDS011;9315;52.624;13.544;2023-07-31T10:30:49;2.30;;;1.38;;
18376;SDS011;9315;52.624;13.544;2023-07-31T10:33:17;3.92;;;1.30;;
18376;SDS011;9315;52.624;13.544;2023-07-31T10:35:49;3.38;;;1.48;;
18376;SDS011;9315;52.624;13.544;2023-07-31T10:38:19;3.15;;;1.58;;
18376;SDS011;9315;52.624;13.544;2023-07-31T10:40:49;4.78;;;1.77;;
18376;SDS011;9315;52.624;13.544;2023-07-31T10:43:23;2.15;;;1.70;;
18376;SDS011;9315;52.624;13.544;2023-07-31T10:45:53;3.75;;;2.25;;
18376;SDS011;9315;52.624;13.544;2023-07-31T10:48:20;3.67;;;2.00;;
18376;SDS011;9315;52.624;13.544;2023-07-31T10:50:49;4.35;;;2.58;;
18376;SDS011;9315;52.624;13.544;2023-07-31T10:53:25;6.25;;;3.10;;
18376;SDS011;9315;52.624;13.544;2023-07-31T10:55:58;4.85;;;2.75;;
18376;SDS011;9315;52.624;13.544;2023-07-31T10:58:43;7.78;;;3.22;;
18376;SDS011;9315;52.624;13.544;2023-07-31T11:01:12;8.35;;;3.60;;
18376;SDS011;9315;52.624;13.544;2023-07-31T11:06:18;5.53;;;2.97;;
18376;SDS011;9315;52.624;13.544;2023-07-31T11:08:46;4.20;;;2.90;;
18376;SDS011;9315;52.624;13.544;2023-07-31T11:11:17;4.72;;;2.72;;
18376;SDS011;9315;52.624;13.544;2023-07-31T11:13:47;8.73;;;2.67;;
18376;SDS011;9315;52.624;13.544;2023-07-31T11:16:17;7.05;;;2.70;;
18376;SDS011;9315;52.624;13.544;2023-07-31T11:18:52;5.72;;;2.90;;
18376;SDS011;9315;52.624;13.544;2023-07-31T11:21:22;9.73;;;2.70;;
18376;SDS011;9315;52.624;13.544;2023-07-31T11:23:52;5.18;;;2.42;;
18376;SDS011;9315;52.624;13.544;2023-07-31T11:26:26;6.78;;;3.13;;
18376;SDS011;9315;52.624;13.544;2023-07-31T11:28:54;4.95;;;2.53;;
18376;SDS011;9315;52.624;13.544;2023-07-31T11:31:24;5.20;;;2.47;;
18376;SDS011;9315;52.624;13.544;2023-07-31T11:34:12;5.18;;;2.40;;
18376;SDS011;9315;52.624;13.544;2023-07-31T11:36:40;5.97;;;2.10;;
18376;SDS011;9315;52.624;13.544;2023-07-31T11:39:08;4.45;;;2.42;;
18376;SDS011;9315;52.624;13.544;2023-07-31T11:41:42;4.57;;;2.10;;
18376;SDS011;9315;52.624;13.544;2023-07-31T11:44:09;6.90;;;2.10;;
18376;SDS011;9315;52.624;13.544;2023-07-31T11:46:53;4.72;;;2.20;;
18376;SDS011;9315;52.624;13.544;2023-07-31T11:49:23;7.60;;;2.60;;
18376;SDS011;9315;52.624;13.544;2023-07-31T11:51:51;4.82;;;2.17;;
18376;SDS011;9315;52.624;13.544;2023-07-31T11:54:19;5.32;;;2.20;;
18376;SDS011;9315;52.624;13.544;2023-07-31T11:56:46;5.88;;;2.40;;
18376;SDS011;9315;52.624;13.544;2023-07-31T11:59:14;4.63;;;2.35;;
18376;SDS011;9315;52.624;13.544;2023-07-31T12:01:42;4.78;;;2.22;;
18376;SDS011;9315;52.624;13.544;2023-07-31T12:04:10;4.82;;;2.30;;
18376;SDS011;9315;52.624;13.544;2023-07-31T12:06:37;5.22;;;2.35;;
18376;SDS011;9315;52.624;13.544;2023-07-31T12:09:05;4.22;;;1.92;;
18376;SDS011;9315;52.624;13.544;2023-07-31T12:11:50;3.67;;;2.03;;
18376;SDS011;9315;52.624;13.544;2023-07-31T12:14:24;6.20;;;2.67;;
18376;SDS011;9315;52.624;13.544;2023-07-31T12:16:56;5.00;;;2.50;;
18376;SDS011;9315;52.624;13.544;2023-07-31T12:19:27;4.30;;;2.00;;
18376;SDS011;9315;52.624;13.544;2023-07-31T12:21:56;3.58;;;2.35;;
18376;SDS011;9315;52.624;13.544;2023-07-31T12:24:28;3.60;;;1.77;;
18376;SDS011;9315;52.624;13.544;2023-07-31T12:26:55;6.38;;;2.22;;
18376;SDS011;9315;52.624;13.544;2023-07-31T12:29:33;4.53;;;2.20;;
18376;SDS011;9315;52.624;13.544;2023-07-31T12:32:17;5.65;;;2.35;;
18376;SDS011;9315;52.624;13.544;2023-07-31T12:34:52;3.70;;;2.50;;
18376;SDS011;9315;52.624;13.544;2023-07-31T12:37:22;5.90;;;2.40;;
18376;SDS011;9315;52.624;13.544;2023-07-31T12:39:50;5.95;;;2.58;;
18376;SDS011;9315;52.624;13.544;2023-07-31T12:42:17;6.75;;;2.55;;
18376;SDS011;9315;52.624;13.544;2023-07-31T12:44:44;4.13;;;2.60;;
18376;SDS011;9315;52.624;13.544;2023-07-31T12:47:12;4.45;;;2.17;;
18376;SDS011;9315;52.624;13.544;2023-07-31T12:49:41;4.93;;;2.30;;
18376;SDS011;9315;52.624;13.544;2023-07-31T12:52:08;6.03;;;2.60;;
18376;SDS011;9315;52.624;13.544;2023-07-31T12:54:35;4.88;;;1.90;;
18376;SDS011;9315;52.624;13.544;2023-07-31T12:57:03;3.63;;;2.08;;
18376;SDS011;9315;52.624;13.544;2023-07-31T12:59:30;8.85;;;2.30;;
18376;SDS011;9315;52.624;13.544;2023-07-31T13:01:58;6.13;;;2.17;;
18376;SDS011;9315;52.624;13.544;2023-07-31T13:04:25;3.42;;;1.80;;
18376;SDS011;9315;52.624;13.544;2023-07-31T13:06:52;5.40;;;1.73;;
18376;SDS011;9315;52.624;13.544;2023-07-31T13:09:19;3.67;;;2.03;;
18376;SDS011;9315;52.624;13.544;2023-07-31T13:11:46;3.78;;;1.90;;
18376;SDS011;9315;52.624;13.544;2023-07-31T13:14:13;5.28;;;2.42;;
18376;SDS011;9315;52.624;13.544;2023-07-31T13:16:41;7.45;;;2.80;;
18376;SDS011;9315;52.624;13.544;2023-07-31T13:19:08;7.13;;;2.28;;
18376;SDS011;9315;52.624;13.544;2023-07-31T13:21:35;6.07;;;2.88;;
18376;SDS011;9315;52.624;13.544;2023-07-31T13:24:03;4.82;;;2.83;;
18376;SDS011;9315;52.624;13.544;2023-07-31T13:26:30;5.25;;;2.67;;
18376;SDS011;9315;52.624;13.544;2023-07-31T13:28:59;4.85;;;2.70;;
18376;SDS011;9315;52.624;13.544;2023-07-31T13:31:26;5.95;;;2.38;;
18376;SDS011;9315;52.624;13.544;2023-07-31T13:33:53;4.85;;;2.30;;
18376;SDS011;9315;52.624;13.544;2023-07-31T13:36:21;3.05;;;2.33;;
18376;SDS011;9315;52.624;13.544;2023-07-31T13:38:50;6.03;;;2.13;;
18376;SDS011;9315;52.624;13.544;2023-07-31T13:41:18;6.10;;;1.90;;
18376;SDS011;9315;52.624;13.544;2023-07-31T13:43:45;2.58;;;1.83;;
18376;SDS011;9315;52.624;13.544;2023-07-31T13:46:12;6.20;;;1.98;;
18376;SDS011;9315;52.624;13.544;2023-07-31T13:48:48;5.93;;;1.58;;
18376;SDS011;9315;52.624;13.544;2023-07-31T13:51:51;6.32;;;2.00;;
18376;SDS011;9315;52.624;13.544;2023-07-31T13:54:18;3.45;;;1.60;;
18376;SDS011;9315;52.624;13.544;2023-07-31T13:56:45;6.57;;;2.28;;
18376;SDS011;9315;52.624;13.544;2023-07-31T13:59:12;5.80;;;1.65;;
18376;SDS011;9315;52.624;13.544;2023-07-31T14:01:42;2.47;;;1.50;;
18376;SDS011;9315;52.624;13.544;2023-07-31T14:04:10;3.33;;;1.80;;
18376;SDS011;9315;52.624;13.544;2023-07-31T14:06:38;3.53;;;1.90;;
18376;SDS011;9315;52.624;13.544;2023-07-31T14:09:06;3.97;;;1.63;;
18376;SDS011;9315;52.624;13.544;2023-07-31T14:11:33;8.00;;;2.20;;
18376;SDS011;9315;52.624;13.544;2023-07-31T14:14:00;4.13;;;1.85;;
18376;SDS011;9315;52.624;13.544;2023-07-31T14:16:28;5.00;;;2.10;;
18376;SDS011;9315;52.624;13.544;2023-07-31T14:18:57;3.60;;;1.70;;
18376;SDS011;9315;52.624;13.544;2023-07-31T14:21:28;4.22;;;2.30;;
18376;SDS011;9315;52.624;13.544;2023-07-31T14:23:55;3.92;;;2.00;;
18376;SDS011;9315;52.624;13.544;2023-07-31T14:26:22;10.35;;;2.47;;
18376;SDS011;9315;52.624;13.544;2023-07-31T14:28:49;7.07;;;2.25;;
18376;SDS011;9315;52.624;13.544;2023-07-31T14:31:17;4.15;;;2.05;;
18376;SDS011;9315;52.624;13.544;2023-07-31T14:33:45;4.03;;;2.30;;
18376;SDS011;9315;52.624;13.544;2023-07-31T14:36:12;4.13;;;2.22;;
18376;SDS011;9315;52.624;13.544;2023-07-31T14:38:40;6.90;;;2.50;;
18376;SDS011;9315;52.624;13.544;2023-07-31T14:41:07;4.80;;;2.00;;
18376;SDS011;9315;52.624;13.544;2023-07-31T14:43:34;4.90;;;2.35;;
18376;SDS011;9315;52.624;13.544;2023-07-31T14:46:01;3.53;;;2.00;;
18376;SDS011;9315;52.624;13.544;2023-07-31T14:48:28;2.65;;;1.92;;
18376;SDS011;9315;52.624;13.544;2023-07-31T14:50:55;3.47;;;1.77;;
18376;SDS011;9315;52.624;13.544;2023-07-31T14:53:23;4.55;;;2.28;;
18376;SDS011;9315;52.624;13.544;2023-07-31T14:55:50;5.22;;;2.40;;
18376;SDS011;9315;52.624;13.544;2023-07-31T14:58:17;7.03;;;2.40;;
18376;SDS011;9315;52.624;13.544;2023-07-31T15:00:44;3.67;;;2.33;;
18376;SDS011;9315;52.624;13.544;2023-07-31T15:03:12;4.93;;;2.40;;
18376;SDS011;9315;52.624;13.544;2023-07-31T15:05:39;7.43;;;2.00;;
18376;SDS011;9315;52.624;13.544;2023-07-31T15:08:06;4.30;;;1.90;;